sensor_id;sensor_type;location;lat;lon;timestamp;P1;durP1;ratioP1;P2;durP2;ratioP2
8419;SDS011;4247;48.550;8.822;2023-01-10T00:02:11;0.53;;;0.30;;
8419;SDS011;4247;48.550;8.822;2023-01-10T00:04:38;0.10;;;0.10;;
8419;SDS011;4247;48.550;8.822;2023-01-10T00:07:05;0.40;;;0.30;;
8419;SDS011;4247;48.550;8.822;2023-01-10T00:09:35;0.33;;;0.30;;
8419;SDS011;4247;48.550;8.822;2023-01-10T00:12:03;2.17;;;0.20;;
8419;SDS011;4247;48.550;8.822;2023-01-10T00:14:50;0.17;;;0.17;;
8419;SDS011;4247;48.550;8.822;2023-01-10T00:17:19;0.10;;;0.10;;
8419;SDS011;4247;48.550;8.822;2023-01-10T00:19:48;0.10;;;0.10;;
8419;SDS011;4247;48.550;8.822;2023-01-10T00:22:15;0.20;;;0.20;;
8419;SDS011;4247;48.550;8.822;2023-01-10T00:24:49;0.10;;;0.10;;
8419;SDS011;4247;48.550;8.822;2023-01-10T00:27:16;0.20;;;0.20;;
8419;SDS011;4247;48.550;8.822;2023-01-10T00:29:46;3.93;;;0.30;;
8419;SDS011;4247;48.550;8.822;2023-01-10T00:32:21;0.10;;;0.10;;
8419;SDS011;4247;48.550;8.822;2023-01-10T00:34:48;1.43;;;0.17;;
8419;SDS011;4247;48.550;8.822;2023-01-10T00:37:17;0.10;;;0.10;;
8419;SDS011;4247;48.550;8.822;2023-01-10T00:39:44;0.10;;;0.10;;
8419;SDS011;4247;48.550;8.822;2023-01-10T00:42:11;0.10;;;0.10;;
8419;SDS011;4247;48.550;8.822;2023-01-10T00:44:55;0.37;;;0.20;;
8419;SDS011;4247;48.550;8.822;2023-01-10T00:47:24;0.83;;;0.20;;
8419;SDS011;4247;48.550;8.822;2023-01-10T00:49:51;0.13;;;0.13;;
8419;SDS011;4247;48.550;8.822;2023-01-10T00:52:21;0.20;;;0.13;;
8419;SDS011;4247;48.550;8.822;2023-01-10T00:54:47;0.17;;;0.10;;
8419;SDS011;4247;48.550;8.822;2023-01-10T00:57:14;0.40;;;0.30;;
8419;SDS011;4247;48.550;8.822;2023-01-10T00:59:41;2.47;;;0.10;;
8419;SDS011;4247;48.550;8.822;2023-01-10T01:02:09;0.30;;;0.30;;
8419;SDS011;4247;48.550;8.822;2023-01-10T01:04:38;0.10;;;0.10;;
8419;SDS011;4247;48.550;8.822;2023-01-10T01:07:07;0.20;;;0.20;;
8419;SDS011;4247;48.550;8.822;2023-01-10T01:09:34;0.20;;;0.20;;
8419;SDS011;4247;48.550;8.822;2023-01-10T01:12:21;0.20;;;0.20;;
8419;SDS011;4247;48.550;8.822;2023-01-10T01:14:50;0.13;;;0.13;;
8419;SDS011;4247;48.550;8.822;2023-01-10T01:17:19;0.20;;;0.20;;
8419;SDS011;4247;48.550;8.822;2023-01-10T01:19:48;0.30;;;0.20;;
8419;SDS011;4247;48.550;8.822;2023-01-10T01:22:15;0.20;;;0.20;;
8419;SDS011;4247;48.550;8.822;2023-01-10T01:24:42;0.20;;;0.20;;
8419;SDS011;4247;48.550;8.822;2023-01-10T01:27:09;0.30;;;0.30;;
8419;SDS011;4247;48.550;8.822;2023-01-10T01:29:36;0.20;;;0.20;;
8419;SDS011;4247;48.550;8.822;2023-01-10T01:32:03;0.20;;;0.20;;
8419;SDS011;4247;48.550;8.822;2023-01-10T01:34:31;0.10;;;0.10;;
8419;SDS011;4247;48.550;8.822;2023-01-10T01:37:00;0.30;;;0.27;;
8419;SDS011;4247;48.550;8.822;2023-01-10T01:39:29;0.30;;;0.30;;
8419;SDS011;4247;48.550;8.822;2023-01-10T01:41:57;0.47;;;0.20;;
8419;SDS011;4247;48.550;8.822;2023-01-10T01:44:28;0.77;;;0.10;;
8419;SDS011;4247;48.550;8.822;2023-01-10T01:46:59;0.20;;;0.20;;
8419;SDS011;4247;48.550;8.822;2023-01-10T01:49:29;0.20;;;0.20;;
8419;SDS011;4247;48.550;8.822;2023-01-10T01:51:58;0.10;;;0.10;;
8419;SDS011;4247;48.550;8.822;2023-01-10T01:54:32;1.30;;;0.20;;
8419;SDS011;4247;48.550;8.822;2023-01-10T01:57:01;1.07;;;0.33;;
8419;SDS011;4247;48.550;8.822;2023-01-10T01:59:35;0.20;;;0.20;;
8419;SDS011;4247;48.550;8.822;2023-01-10T02:02:07;0.30;;;0.20;;
8419;SDS011;4247;48.550;8.822;2023-01-10T02:04:40;0.10;;;0.10;;
8419;SDS011;4247;48.550;8.822;2023-01-10T02:07:13;0.23;;;0.10;;
8419;SDS011;4247;48.550;8.822;2023-01-10T02:09:45;0.10;;;0.10;;
8419;SDS011;4247;48.550;8.822;2023-01-10T02:12:17;0.10;;;0.10;;
8419;SDS011;4247;48.550;8.822;2023-01-10T02:14:45;0.20;;;0.20;;
8419;SDS011;4247;48.550;8.822;2023-01-10T02:17:15;0.47;;;0.20;;
8419;SDS011;4247;48.550;8.822;2023-01-10T02:19:46;0.10;;;0.10;;
8419;SDS011;4247;48.550;8.822;2023-01-10T02:31:47;0.10;;;0.10;;
8419;SDS011;4247;48.550;8.822;2023-01-10T02:34:37;0.10;;;0.10;;
8419;SDS011;4247;48.550;8.822;2023-01-10T02:37:12;0.20;;;0.20;;
8419;SDS011;4247;48.550;8.822;2023-01-10T02:39:47;0.10;;;0.10;;
8419;SDS011;4247;48.550;8.822;2023-01-10T02:42:22;0.20;;;0.10;;
8419;SDS011;4247;48.550;8.822;2023-01-10T02:44:57;0.07;;;0.07;;
8419;SDS011;4247;48.550;8.822;2023-01-10T02:47:35;0.00;;;0.00;;
8419;SDS011;4247;48.550;8.822;2023-01-10T02:50:21;0.00;;;0.00;;
8419;SDS011;4247;48.550;8.822;2023-01-10T02:53:08;1.10;;;0.10;;
8419;SDS011;4247;48.550;8.822;2023-01-10T02:55:42;0.00;;;0.00;;
8419;SDS011;4247;48.550;8.822;2023-01-10T02:58:23;0.10;;;0.10;;
8419;SDS011;4247;48.550;8.822;2023-01-10T03:01:02;0.10;;;0.10;;
8419;SDS011;4247;48.550;8.822;2023-01-10T03:03:39;0.00;;;0.00;;
8419;SDS011;4247;48.550;8.822;2023-01-10T03:06:17;0.10;;;0.10;;
8419;SDS011;4247;48.550;8.822;2023-01-10T03:08:50;0.30;;;0.10;;
8419;SDS011;4247;48.550;8.822;2023-01-10T03:11:22;0.10;;;0.10;;
8419;SDS011;4247;48.550;8.822;2023-01-10T03:14:05;0.00;;;0.00;;
8419;SDS011;4247;48.550;8.822;2023-01-10T03:16:39;0.10;;;0.10;;
8419;SDS011;4247;48.550;8.822;2023-01-10T03:19:14;0.10;;;0.10;;
8419;SDS011;4247;48.550;8.822;2023-01-10T03:21:45;0.07;;;0.07;;
8419;SDS011;4247;48.550;8.822;2023-01-10T03:24:18;0.10;;;0.10;;
8419;SDS011;4247;48.550;8.822;2023-01-10T03:26:52;0.00;;;0.00;;
8419;SDS011;4247;48.550;8.822;2023-01-10T03:29:24;0.00;;;0.00;;
8419;SDS011;4247;48.550;8.822;2023-01-10T03:31:59;0.00;;;0.00;;
8419;SDS011;4247;48.550;8.822;2023-01-10T03:34:32;0.00;;;0.00;;
8419;SDS011;4247;48.550;8.822;2023-01-10T03:37:04;1.80;;;0.10;;
8419;SDS011;4247;48.550;8.822;2023-01-10T03:39:39;0.10;;;0.10;;
8419;SDS011;4247;48.550;8.822;2023-01-10T03:42:17;0.00;;;0.00;;
8419;SDS011;4247;48.550;8.822;2023-01-10T03:44:52;0.10;;;0.10;;
8419;SDS011;4247;48.550;8.822;2023-01-10T03:47:26;0.10;;;0.10;;
8419;SDS011;4247;48.550;8.822;2023-01-10T03:50:02;0.00;;;0.00;;
8419;SDS011;4247;48.550;8.822;2023-01-10T03:52:32;0.20;;;0.20;;
8419;SDS011;4247;48.550;8.822;2023-01-10T03:55:00;0.10;;;0.10;;
8419;SDS011;4247;48.550;8.822;2023-01-10T03:57:29;0.10;;;0.10;;
8419;SDS011;4247;48.550;8.822;2023-01-10T03:59:57;0.17;;;0.10;;
8419;SDS011;4247;48.550;8.822;2023-01-10T04:02:25;0.20;;;0.20;;
8419;SDS011;4247;48.550;8.822;2023-01-10T04:04:53;0.87;;;0.20;;
8419;SDS011;4247;48.550;8.822;2023-01-10T04:07:21;0.10;;;0.10;;
8419;SDS011;4247;48.550;8.822;2023-01-10T04:09:48;1.13;;;0.30;;
8419;SDS011;4247;48.550;8.822;2023-01-10T04:12:15;2.43;;;0.57;;
8419;SDS011;4247;48.550;8.822;2023-01-10T04:14:42;0.47;;;0.40;;
8419;SDS011;4247;48.550;8.822;2023-01-10T04:17:10;0.97;;;0.40;;
8419;SDS011;4247;48.550;8.822;2023-01-10T04:19:40;0.70;;;0.27;;
8419;SDS011;4247;48.550;8.822;2023-01-10T04:22:07;0.20;;;0.20;;
8419;SDS011;4247;48.550;8.822;2023-01-10T04:24:37;2.30;;;0.50;;
8419;SDS011;4247;48.550;8.822;2023-01-10T04:27:04;1.23;;;0.40;;
8419;SDS011;4247;48.550;8.822;2023-01-10T04:29:31;1.70;;;0.47;;
8419;SDS011;4247;48.550;8.822;2023-01-10T04:31:58;0.97;;;0.43;;
8419;SDS011;4247;48.550;8.822;2023-01-10T04:34:25;2.30;;;0.50;;
8419;SDS011;4247;48.550;8.822;2023-01-10T04:36:52;2.77;;;0.57;;
8419;SDS011;4247;48.550;8.822;2023-01-10T04:39:20;1.80;;;0.30;;
8419;SDS011;4247;48.550;8.822;2023-01-10T04:41:50;4.10;;;1.00;;
8419;SDS011;4247;48.550;8.822;2023-01-10T04:44:17;6.30;;;1.67;;
8419;SDS011;4247;48.550;8.822;2023-01-10T04:46:44;1.80;;;0.73;;
8419;SDS011;4247;48.550;8.822;2023-01-10T04:49:11;5.47;;;0.70;;
8419;SDS011;4247;48.550;8.822;2023-01-10T04:51:38;0.93;;;0.60;;
8419;SDS011;4247;48.550;8.822;2023-01-10T04:54:05;2.57;;;0.60;;
8419;SDS011;4247;48.550;8.822;2023-01-10T04:56:32;2.00;;;0.83;;
8419;SDS011;4247;48.550;8.822;2023-01-10T04:59:01;1.50;;;0.50;;
8419;SDS011;4247;48.550;8.822;2023-01-10T05:01:33;0.67;;;0.60;;
8419;SDS011;4247;48.550;8.822;2023-01-10T05:04:03;4.53;;;1.03;;
8419;SDS011;4247;48.550;8.822;2023-01-10T05:06:32;5.03;;;0.70;;
8419;SDS011;4247;48.550;8.822;2023-01-10T05:08:59;0.50;;;0.50;;
8419;SDS011;4247;48.550;8.822;2023-01-10T05:11:26;2.23;;;0.50;;
8419;SDS011;4247;48.550;8.822;2023-01-10T05:13:55;1.57;;;0.57;;
8419;SDS011;4247;48.550;8.822;2023-01-10T05:16:24;2.13;;;0.50;;
8419;SDS011;4247;48.550;8.822;2023-01-10T05:18:53;0.87;;;0.47;;
8419;SDS011;4247;48.550;8.822;2023-01-10T05:21:20;5.90;;;0.80;;
8419;SDS011;4247;48.550;8.822;2023-01-10T05:23:47;5.57;;;0.70;;
8419;SDS011;4247;48.550;8.822;2023-01-10T05:26:15;6.13;;;0.60;;
8419;SDS011;4247;48.550;8.822;2023-01-10T05:28:43;3.10;;;0.60;;
8419;SDS011;4247;48.550;8.822;2023-01-10T05:31:11;7.13;;;1.00;;
8419;SDS011;4247;48.550;8.822;2023-01-10T05:33:44;7.60;;;1.10;;
8419;SDS011;4247;48.550;8.822;2023-01-10T05:36:11;9.53;;;1.50;;
8419;SDS011;4247;48.550;8.822;2023-01-10T05:38:38;2.87;;;1.60;;
8419;SDS011;4247;48.550;8.822;2023-01-10T05:41:05;2.20;;;0.90;;
8419;SDS011;4247;48.550;8.822;2023-01-10T05:43:34;5.43;;;1.30;;
8419;SDS011;4247;48.550;8.822;2023-01-10T05:46:02;2.37;;;1.87;;
8419;SDS011;4247;48.550;8.822;2023-01-10T05:48:29;2.77;;;0.70;;
8419;SDS011;4247;48.550;8.822;2023-01-10T05:51:00;2.43;;;0.70;;
8419;SDS011;4247;48.550;8.822;2023-01-10T05:53:27;2.27;;;0.70;;
8419;SDS011;4247;48.550;8.822;2023-01-10T05:55:57;4.93;;;0.70;;
8419;SDS011;4247;48.550;8.822;2023-01-10T05:58:26;4.90;;;0.77;;
8419;SDS011;4247;48.550;8.822;2023-01-10T06:00:54;1.67;;;0.60;;
8419;SDS011;4247;48.550;8.822;2023-01-10T06:03:22;3.30;;;0.40;;
8419;SDS011;4247;48.550;8.822;2023-01-10T06:05:53;3.30;;;0.70;;
8419;SDS011;4247;48.550;8.822;2023-01-10T06:08:22;2.33;;;0.70;;
8419;SDS011;4247;48.550;8.822;2023-01-10T06:10:51;3.93;;;0.87;;
8419;SDS011;4247;48.550;8.822;2023-01-10T06:13:18;5.10;;;1.03;;
8419;SDS011;4247;48.550;8.822;2023-01-10T06:15:46;7.20;;;1.17;;
8419;SDS011;4247;48.550;8.822;2023-01-10T06:18:13;6.17;;;0.77;;
8419;SDS011;4247;48.550;8.822;2023-01-10T06:20:40;5.90;;;0.83;;
8419;SDS011;4247;48.550;8.822;2023-01-10T06:23:09;1.97;;;1.03;;
8419;SDS011;4247;48.550;8.822;2023-01-10T06:25:37;5.30;;;0.63;;
8419;SDS011;4247;48.550;8.822;2023-01-10T06:28:05;5.93;;;0.90;;
8419;SDS011;4247;48.550;8.822;2023-01-10T06:30:36;5.27;;;0.97;;
8419;SDS011;4247;48.550;8.822;2023-01-10T06:33:06;1.17;;;0.77;;
8419;SDS011;4247;48.550;8.822;2023-01-10T06:35:36;5.63;;;1.07;;
8419;SDS011;4247;48.550;8.822;2023-01-10T06:38:03;4.07;;;0.80;;
8419;SDS011;4247;48.550;8.822;2023-01-10T06:40:30;3.87;;;0.90;;
8419;SDS011;4247;48.550;8.822;2023-01-10T06:42:58;5.70;;;1.03;;
8419;SDS011;4247;48.550;8.822;2023-01-10T06:45:25;1.47;;;0.80;;
8419;SDS011;4247;48.550;8.822;2023-01-10T06:47:56;3.27;;;1.07;;
8419;SDS011;4247;48.550;8.822;2023-01-10T06:50:24;4.17;;;1.10;;
8419;SDS011;4247;48.550;8.822;2023-01-10T06:52:55;3.90;;;1.90;;
8419;SDS011;4247;48.550;8.822;2023-01-10T06:55:22;3.70;;;1.03;;
8419;SDS011;4247;48.550;8.822;2023-01-10T06:57:55;3.37;;;0.77;;
8419;SDS011;4247;48.550;8.822;2023-01-10T07:00:26;9.80;;;1.33;;
8419;SDS011;4247;48.550;8.822;2023-01-10T07:02:57;6.13;;;1.23;;
8419;SDS011;4247;48.550;8.822;2023-01-10T07:05:25;3.60;;;1.17;;
8419;SDS011;4247;48.550;8.822;2023-01-10T07:07:53;9.77;;;1.63;;
8419;SDS011;4247;48.550;8.822;2023-01-10T07:10:21;7.93;;;2.30;;
8419;SDS011;4247;48.550;8.822;2023-01-10T07:12:49;4.23;;;1.97;;
8419;SDS011;4247;48.550;8.822;2023-01-10T07:15:15;5.90;;;1.90;;
8419;SDS011;4247;48.550;8.822;2023-01-10T07:17:46;10.67;;;2.23;;
8419;SDS011;4247;48.550;8.822;2023-01-10T07:20:13;3.10;;;1.50;;
8419;SDS011;4247;48.550;8.822;2023-01-10T07:22:40;7.50;;;1.30;;
8419;SDS011;4247;48.550;8.822;2023-01-10T07:25:08;7.37;;;1.10;;
8419;SDS011;4247;48.550;8.822;2023-01-10T07:27:35;6.60;;;0.87;;
8419;SDS011;4247;48.550;8.822;2023-01-10T07:30:06;3.73;;;0.87;;
8419;SDS011;4247;48.550;8.822;2023-01-10T07:32:34;2.70;;;0.90;;
8419;SDS011;4247;48.550;8.822;2023-01-10T07:35:03;1.57;;;1.10;;
8419;SDS011;4247;48.550;8.822;2023-01-10T07:37:31;2.70;;;1.10;;
8419;SDS011;4247;48.550;8.822;2023-01-10T07:39:58;4.27;;;0.93;;
8419;SDS011;4247;48.550;8.822;2023-01-10T07:42:28;1.27;;;1.00;;
8419;SDS011;4247;48.550;8.822;2023-01-10T07:44:55;2.83;;;1.03;;
8419;SDS011;4247;48.550;8.822;2023-01-10T07:47:22;4.93;;;1.93;;
8419;SDS011;4247;48.550;8.822;2023-01-10T07:49:49;6.70;;;1.10;;
8419;SDS011;4247;48.550;8.822;2023-01-10T07:52:18;8.20;;;2.90;;
8419;SDS011;4247;48.550;8.822;2023-01-10T07:54:45;13.40;;;3.70;;
8419;SDS011;4247;48.550;8.822;2023-01-10T07:57:11;9.03;;;2.27;;
8419;SDS011;4247;48.550;8.822;2023-01-10T07:59:39;7.60;;;3.13;;
8419;SDS011;4247;48.550;8.822;2023-01-10T08:02:07;4.80;;;1.60;;
8419;SDS011;4247;48.550;8.822;2023-01-10T08:04:38;4.47;;;1.23;;
8419;SDS011;4247;48.550;8.822;2023-01-10T08:07:05;1.57;;;1.00;;
8419;SDS011;4247;48.550;8.822;2023-01-10T08:09:34;6.27;;;1.77;;
8419;SDS011;4247;48.550;8.822;2023-01-10T08:12:01;4.23;;;1.10;;
8419;SDS011;4247;48.550;8.822;2023-01-10T08:14:28;3.13;;;0.73;;
8419;SDS011;4247;48.550;8.822;2023-01-10T08:16:56;1.67;;;0.90;;
8419;SDS011;4247;48.550;8.822;2023-01-10T08:19:24;1.97;;;1.07;;
8419;SDS011;4247;48.550;8.822;2023-01-10T08:21:51;11.77;;;1.53;;
8419;SDS011;4247;48.550;8.822;2023-01-10T08:24:19;5.73;;;1.67;;
8419;SDS011;4247;48.550;8.822;2023-01-10T08:26:47;7.67;;;1.87;;
8419;SDS011;4247;48.550;8.822;2023-01-10T08:29:14;3.87;;;2.20;;
8419;SDS011;4247;48.550;8.822;2023-01-10T08:31:41;8.60;;;1.43;;
8419;SDS011;4247;48.550;8.822;2023-01-10T08:34:08;3.33;;;1.10;;
8419;SDS011;4247;48.550;8.822;2023-01-10T08:36:37;2.47;;;0.90;;
8419;SDS011;4247;48.550;8.822;2023-01-10T08:39:08;6.10;;;1.10;;
8419;SDS011;4247;48.550;8.822;2023-01-10T08:41:35;7.47;;;2.77;;
8419;SDS011;4247;48.550;8.822;2023-01-10T08:44:05;8.13;;;3.47;;
8419;SDS011;4247;48.550;8.822;2023-01-10T08:46:35;10.43;;;4.20;;
8419;SDS011;4247;48.550;8.822;2023-01-10T08:49:03;7.17;;;2.73;;
8419;SDS011;4247;48.550;8.822;2023-01-10T08:51:30;6.47;;;1.20;;
8419;SDS011;4247;48.550;8.822;2023-01-10T08:54:00;2.90;;;1.17;;
8419;SDS011;4247;48.550;8.822;2023-01-10T08:56:27;4.17;;;1.03;;
8419;SDS011;4247;48.550;8.822;2023-01-10T08:58:55;13.23;;;2.70;;
8419;SDS011;4247;48.550;8.822;2023-01-10T09:01:23;4.77;;;2.23;;
8419;SDS011;4247;48.550;8.822;2023-01-10T09:03:50;2.00;;;1.53;;
8419;SDS011;4247;48.550;8.822;2023-01-10T09:06:17;9.87;;;1.20;;
8419;SDS011;4247;48.550;8.822;2023-01-10T09:08:44;5.93;;;1.00;;
8419;SDS011;4247;48.550;8.822;2023-01-10T09:11:11;1.90;;;0.87;;
8419;SDS011;4247;48.550;8.822;2023-01-10T09:13:39;6.47;;;2.60;;
8419;SDS011;4247;48.550;8.822;2023-01-10T09:16:09;3.53;;;1.47;;
8419;SDS011;4247;48.550;8.822;2023-01-10T09:18:38;3.03;;;0.80;;
8419;SDS011;4247;48.550;8.822;2023-01-10T09:21:05;6.30;;;1.00;;
8419;SDS011;4247;48.550;8.822;2023-01-10T09:23:32;3.50;;;1.13;;
8419;SDS011;4247;48.550;8.822;2023-01-10T09:25:59;1.07;;;0.90;;
8419;SDS011;4247;48.550;8.822;2023-01-10T09:28:27;1.67;;;0.60;;
8419;SDS011;4247;48.550;8.822;2023-01-10T09:30:54;1.80;;;0.70;;
8419;SDS011;4247;48.550;8.822;2023-01-10T09:33:21;0.80;;;0.60;;
8419;SDS011;4247;48.550;8.822;2023-01-10T09:35:50;2.73;;;0.70;;
8419;SDS011;4247;48.550;8.822;2023-01-10T09:38:22;1.63;;;0.70;;
8419;SDS011;4247;48.550;8.822;2023-01-10T09:40:58;1.07;;;0.60;;
8419;SDS011;4247;48.550;8.822;2023-01-10T09:43:48;2.53;;;1.47;;
8419;SDS011;4247;48.550;8.822;2023-01-10T09:46:26;2.63;;;0.80;;
8419;SDS011;4247;48.550;8.822;2023-01-10T09:49:05;3.93;;;1.37;;
8419;SDS011;4247;48.550;8.822;2023-01-10T09:51:41;5.27;;;1.10;;
8419;SDS011;4247;48.550;8.822;2023-01-10T09:54:13;4.73;;;1.20;;
8419;SDS011;4247;48.550;8.822;2023-01-10T09:56:46;4.70;;;0.90;;
8419;SDS011;4247;48.550;8.822;2023-01-10T09:59:14;2.00;;;0.80;;
8419;SDS011;4247;48.550;8.822;2023-01-10T10:01:49;2.93;;;0.53;;
8419;SDS011;4247;48.550;8.822;2023-01-10T10:04:22;2.80;;;0.67;;
8419;SDS011;4247;48.550;8.822;2023-01-10T10:06:59;5.37;;;1.50;;
8419;SDS011;4247;48.550;8.822;2023-01-10T10:09:27;3.13;;;0.80;;
8419;SDS011;4247;48.550;8.822;2023-01-10T10:12:14;5.00;;;1.03;;
8419;SDS011;4247;48.550;8.822;2023-01-10T10:15:00;2.47;;;1.00;;
8419;SDS011;4247;48.550;8.822;2023-01-10T10:17:42;4.00;;;0.70;;
8419;SDS011;4247;48.550;8.822;2023-01-10T10:20:20;3.93;;;1.00;;
8419;SDS011;4247;48.550;8.822;2023-01-10T10:25:34;4.63;;;1.10;;
8419;SDS011;4247;48.550;8.822;2023-01-10T10:28:13;1.00;;;0.57;;
8419;SDS011;4247;48.550;8.822;2023-01-10T10:31:02;1.80;;;0.90;;
8419;SDS011;4247;48.550;8.822;2023-01-10T10:33:46;7.60;;;1.40;;
8419;SDS011;4247;48.550;8.822;2023-01-10T10:36:23;4.80;;;2.00;;
8419;SDS011;4247;48.550;8.822;2023-01-10T10:38:52;4.67;;;1.70;;
8419;SDS011;4247;48.550;8.822;2023-01-10T10:41:27;4.53;;;1.30;;
8419;SDS011;4247;48.550;8.822;2023-01-10T10:43:57;6.27;;;1.03;;
8419;SDS011;4247;48.550;8.822;2023-01-10T10:46:28;3.33;;;1.10;;
8419;SDS011;4247;48.550;8.822;2023-01-10T10:48:57;8.03;;;1.10;;
8419;SDS011;4247;48.550;8.822;2023-01-10T10:51:28;5.03;;;1.30;;
8419;SDS011;4247;48.550;8.822;2023-01-10T10:54:02;6.03;;;1.17;;
8419;SDS011;4247;48.550;8.822;2023-01-10T10:56:31;5.80;;;1.40;;
8419;SDS011;4247;48.550;8.822;2023-01-10T10:58:58;5.17;;;1.90;;
8419;SDS011;4247;48.550;8.822;2023-01-10T11:01:25;5.60;;;1.83;;
8419;SDS011;4247;48.550;8.822;2023-01-10T11:03:54;0.73;;;0.57;;
8419;SDS011;4247;48.550;8.822;2023-01-10T11:06:23;5.80;;;0.87;;
8419;SDS011;4247;48.550;8.822;2023-01-10T11:08:53;3.07;;;0.67;;
8419;SDS011;4247;48.550;8.822;2023-01-10T11:11:26;3.73;;;0.53;;
8419;SDS011;4247;48.550;8.822;2023-01-10T11:13:56;2.73;;;0.63;;
8419;SDS011;4247;48.550;8.822;2023-01-10T11:16:26;3.40;;;1.63;;
8419;SDS011;4247;48.550;8.822;2023-01-10T11:19:12;3.50;;;0.60;;
8419;SDS011;4247;48.550;8.822;2023-01-10T11:21:42;2.80;;;0.50;;
8419;SDS011;4247;48.550;8.822;2023-01-10T11:24:17;7.50;;;0.80;;
8419;SDS011;4247;48.550;8.822;2023-01-10T11:26:47;3.60;;;1.23;;
8419;SDS011;4247;48.550;8.822;2023-01-10T11:29:17;2.90;;;0.80;;
8419;SDS011;4247;48.550;8.822;2023-01-10T11:31:46;2.90;;;1.00;;
8419;SDS011;4247;48.550;8.822;2023-01-10T11:34:18;3.70;;;1.13;;
8419;SDS011;4247;48.550;8.822;2023-01-10T11:36:52;6.93;;;0.90;;
8419;SDS011;4247;48.550;8.822;2023-01-10T11:39:20;2.53;;;0.50;;
8419;SDS011;4247;48.550;8.822;2023-01-10T11:41:47;5.97;;;0.70;;
8419;SDS011;4247;48.550;8.822;2023-01-10T11:44:20;3.53;;;0.50;;
8419;SDS011;4247;48.550;8.822;2023-01-10T11:46:48;4.80;;;1.33;;
8419;SDS011;4247;48.550;8.822;2023-01-10T11:49:21;2.53;;;0.30;;
8419;SDS011;4247;48.550;8.822;2023-01-10T11:51:54;0.77;;;0.50;;
8419;SDS011;4247;48.550;8.822;2023-01-10T11:54:24;2.10;;;0.60;;
8419;SDS011;4247;48.550;8.822;2023-01-10T11:56:53;3.23;;;0.40;;
8419;SDS011;4247;48.550;8.822;2023-01-10T11:59:24;2.50;;;0.90;;
8419;SDS011;4247;48.550;8.822;2023-01-10T12:01:53;0.40;;;0.40;;
8419;SDS011;4247;48.550;8.822;2023-01-10T12:04:23;4.73;;;1.00;;
8419;SDS011;4247;48.550;8.822;2023-01-10T12:06:55;6.37;;;0.80;;
8419;SDS011;4247;48.550;8.822;2023-01-10T12:09:34;3.43;;;0.40;;
8419;SDS011;4247;48.550;8.822;2023-01-10T12:12:05;4.97;;;1.00;;
8419;SDS011;4247;48.550;8.822;2023-01-10T12:14:40;9.33;;;1.33;;
8419;SDS011;4247;48.550;8.822;2023-01-10T12:17:09;5.90;;;0.70;;
8419;SDS011;4247;48.550;8.822;2023-01-10T12:19:38;5.20;;;0.50;;
8419;SDS011;4247;48.550;8.822;2023-01-10T12:22:05;8.17;;;0.70;;
8419;SDS011;4247;48.550;8.822;2023-01-10T12:24:33;4.13;;;0.60;;
8419;SDS011;4247;48.550;8.822;2023-01-10T12:27:04;3.23;;;0.70;;
8419;SDS011;4247;48.550;8.822;2023-01-10T12:29:32;3.23;;;0.67;;
8419;SDS011;4247;48.550;8.822;2023-01-10T12:32:02;3.17;;;0.60;;
8419;SDS011;4247;48.550;8.822;2023-01-10T12:34:33;3.57;;;0.90;;
8419;SDS011;4247;48.550;8.822;2023-01-10T12:37:07;3.23;;;0.70;;
8419;SDS011;4247;48.550;8.822;2023-01-10T12:39:40;3.40;;;0.70;;
8419;SDS011;4247;48.550;8.822;2023-01-10T12:42:13;3.20;;;1.00;;
8419;SDS011;4247;48.550;8.822;2023-01-10T12:45:05;2.60;;;0.53;;
8419;SDS011;4247;48.550;8.822;2023-01-10T12:47:40;2.93;;;0.60;;
8419;SDS011;4247;48.550;8.822;2023-01-10T12:50:22;3.30;;;0.70;;
8419;SDS011;4247;48.550;8.822;2023-01-10T12:52:53;4.83;;;1.07;;
8419;SDS011;4247;48.550;8.822;2023-01-10T12:55:26;1.90;;;0.97;;
8419;SDS011;4247;48.550;8.822;2023-01-10T12:57:57;3.70;;;0.50;;
8419;SDS011;4247;48.550;8.822;2023-01-10T13:00:27;2.30;;;0.67;;
8419;SDS011;4247;48.550;8.822;2023-01-10T13:02:58;1.37;;;0.67;;
8419;SDS011;4247;48.550;8.822;2023-01-10T13:05:28;1.80;;;0.77;;
8419;SDS011;4247;48.550;8.822;2023-01-10T13:07:58;5.33;;;0.60;;
8419;SDS011;4247;48.550;8.822;2023-01-10T13:10:29;2.07;;;0.50;;
8419;SDS011;4247;48.550;8.822;2023-01-10T13:12:57;5.70;;;0.70;;
8419;SDS011;4247;48.550;8.822;2023-01-10T13:15:31;1.23;;;0.60;;
8419;SDS011;4247;48.550;8.822;2023-01-10T13:18:01;3.73;;;0.37;;
8419;SDS011;4247;48.550;8.822;2023-01-10T13:20:38;1.67;;;0.67;;
8419;SDS011;4247;48.550;8.822;2023-01-10T13:23:14;3.63;;;0.60;;
8419;SDS011;4247;48.550;8.822;2023-01-10T13:26:01;2.60;;;0.70;;
8419;SDS011;4247;48.550;8.822;2023-01-10T13:28:33;4.40;;;0.70;;
8419;SDS011;4247;48.550;8.822;2023-01-10T13:31:01;1.30;;;0.50;;
8419;SDS011;4247;48.550;8.822;2023-01-10T13:33:32;3.10;;;0.67;;
8419;SDS011;4247;48.550;8.822;2023-01-10T13:36:08;3.67;;;1.10;;
8419;SDS011;4247;48.550;8.822;2023-01-10T13:38:42;2.97;;;0.30;;
8419;SDS011;4247;48.550;8.822;2023-01-10T13:41:14;1.57;;;0.40;;
8419;SDS011;4247;48.550;8.822;2023-01-10T13:44:00;0.60;;;0.53;;
8419;SDS011;4247;48.550;8.822;2023-01-10T13:46:39;1.37;;;0.40;;
8419;SDS011;4247;48.550;8.822;2023-01-10T13:54:56;4.47;;;2.07;;
8419;SDS011;4247;48.550;8.822;2023-01-10T14:00:24;0.70;;;0.60;;
8419;SDS011;4247;48.550;8.822;2023-01-10T14:03:47;2.57;;;0.60;;
8419;SDS011;4247;48.550;8.822;2023-01-10T14:06:34;2.13;;;0.43;;
8419;SDS011;4247;48.550;8.822;2023-01-10T14:11:57;1.80;;;0.80;;
8419;SDS011;4247;48.550;8.822;2023-01-10T14:14:25;3.33;;;1.00;;
8419;SDS011;4247;48.550;8.822;2023-01-10T14:16:55;6.90;;;0.90;;
8419;SDS011;4247;48.550;8.822;2023-01-10T14:19:35;5.90;;;1.00;;
8419;SDS011;4247;48.550;8.822;2023-01-10T14:22:03;6.73;;;1.10;;
8419;SDS011;4247;48.550;8.822;2023-01-10T14:24:33;4.90;;;1.07;;
8419;SDS011;4247;48.550;8.822;2023-01-10T14:27:11;1.07;;;0.60;;
8419;SDS011;4247;48.550;8.822;2023-01-10T14:29:40;3.60;;;0.90;;
8419;SDS011;4247;48.550;8.822;2023-01-10T14:32:15;4.37;;;0.93;;
8419;SDS011;4247;48.550;8.822;2023-01-10T14:34:56;1.40;;;0.67;;
8419;SDS011;4247;48.550;8.822;2023-01-10T14:37:26;3.83;;;1.27;;
8419;SDS011;4247;48.550;8.822;2023-01-10T14:39:59;1.93;;;0.50;;
8419;SDS011;4247;48.550;8.822;2023-01-10T14:42:26;4.33;;;0.67;;
8419;SDS011;4247;48.550;8.822;2023-01-10T14:44:55;3.43;;;0.53;;
8419;SDS011;4247;48.550;8.822;2023-01-10T14:47:25;10.10;;;1.03;;
8419;SDS011;4247;48.550;8.822;2023-01-10T14:49:54;12.97;;;0.90;;
8419;SDS011;4247;48.550;8.822;2023-01-10T14:52:23;0.70;;;0.47;;
8419;SDS011;4247;48.550;8.822;2023-01-10T14:55:00;2.77;;;1.20;;
8419;SDS011;4247;48.550;8.822;2023-01-10T14:57:29;4.30;;;0.57;;
8419;SDS011;4247;48.550;8.822;2023-01-10T15:00:03;5.97;;;0.60;;
8419;SDS011;4247;48.550;8.822;2023-01-10T15:02:31;0.90;;;0.63;;
8419;SDS011;4247;48.550;8.822;2023-01-10T15:04:59;7.23;;;0.73;;
8419;SDS011;4247;48.550;8.822;2023-01-10T15:07:33;2.53;;;0.77;;
8419;SDS011;4247;48.550;8.822;2023-01-10T15:10:02;1.30;;;0.77;;
8419;SDS011;4247;48.550;8.822;2023-01-10T15:12:43;2.63;;;0.47;;
8419;SDS011;4247;48.550;8.822;2023-01-10T15:15:12;7.27;;;1.53;;
8419;SDS011;4247;48.550;8.822;2023-01-10T15:17:41;7.30;;;1.73;;
8419;SDS011;4247;48.550;8.822;2023-01-10T15:20:12;2.80;;;1.20;;
8419;SDS011;4247;48.550;8.822;2023-01-10T15:22:46;2.53;;;0.60;;
8419;SDS011;4247;48.550;8.822;2023-01-10T15:25:27;6.43;;;0.90;;
8419;SDS011;4247;48.550;8.822;2023-01-10T15:27:57;5.70;;;0.70;;
8419;SDS011;4247;48.550;8.822;2023-01-10T15:30:27;1.80;;;0.50;;
8419;SDS011;4247;48.550;8.822;2023-01-10T15:32:55;2.23;;;0.50;;
8419;SDS011;4247;48.550;8.822;2023-01-10T15:35:30;4.73;;;0.50;;
8419;SDS011;4247;48.550;8.822;2023-01-10T15:38:01;5.80;;;1.00;;
8419;SDS011;4247;48.550;8.822;2023-01-10T15:40:30;4.70;;;0.83;;
8419;SDS011;4247;48.550;8.822;2023-01-10T15:43:09;4.57;;;0.90;;
8419;SDS011;4247;48.550;8.822;2023-01-10T15:45:37;4.60;;;0.73;;
8419;SDS011;4247;48.550;8.822;2023-01-10T15:48:19;4.80;;;0.90;;
8419;SDS011;4247;48.550;8.822;2023-01-10T15:50:55;2.03;;;0.60;;
8419;SDS011;4247;48.550;8.822;2023-01-10T15:56:17;5.07;;;1.10;;
8419;SDS011;4247;48.550;8.822;2023-01-10T15:58:47;12.87;;;4.07;;
8419;SDS011;4247;48.550;8.822;2023-01-10T16:01:14;13.03;;;3.70;;
8419;SDS011;4247;48.550;8.822;2023-01-10T16:03:43;16.47;;;3.53;;
8419;SDS011;4247;48.550;8.822;2023-01-10T16:06:17;13.20;;;2.23;;